Time;durP1;ratioP1;P1;durP2;ratioP2;P2;SDS_P1;SDS_P2;PMS_P1;PMS_P2;Temp;Humidity;BMP_temperature;BMP_pressure;BME280_temperature;BME280_humidity;BME280_pressure;Samples;Min_cycle;Max_cycle;Signal;HPM_P1;HPM_P2
2020/12/05 00:00:32;;;;;;;49.10;25.53;;;-0.20;99.90;;;;;;5108612;28;20517;-67
2020/12/05 00:03:00;;;;;;;54.33;26.90;;;-0.10;99.90;;;;;;5129392;28;20451;-67
2020/12/05 00:05:27;;;;;;;64.57;26.40;;;-0.10;99.90;;;;;;5129500;28;20479;-68
2020/12/05 00:07:54;;;;;;;49.20;23.87;;;-0.10;99.90;;;;;;5129281;28;20455;-66
2020/12/05 00:10:22;;;;;;;47.93;25.70;;;-0.10;99.90;;;;;;5127207;28;20462;-67
2020/12/05 00:12:49;;;;;;;51.10;24.27;;;-0.10;99.90;;;;;;5108268;28;20457;-68
2020/12/05 00:15:16;;;;;;;48.70;25.40;;;-0.10;99.90;;;;;;5107751;28;20479;-65
2020/12/05 00:17:43;;;;;;;52.43;26.13;;;-0.10;99.90;;;;;;5108345;28;20480;-66
2020/12/05 00:20:12;;;;;;;51.10;24.07;;;-0.10;99.90;;;;;;5107843;28;20475;-66
2020/12/05 00:22:39;;;;;;;49.50;24.87;;;-0.10;99.90;;;;;;5108093;28;20460;-66
2020/12/05 00:25:06;;;;;;;51.50;26.67;;;-0.10;99.90;;;;;;5107734;28;20472;-66
2020/12/05 00:27:34;;;;;;;47.17;23.67;;;-0.10;99.90;;;;;;5107923;28;20460;-66
2020/12/05 00:30:01;;;;;;;51.27;24.67;;;-0.10;99.90;;;;;;5107776;28;20455;-65
2020/12/05 00:32:28;;;;;;;46.60;26.07;;;-0.10;99.90;;;;;;5107671;28;20459;-65
2020/12/05 00:34:56;;;;;;;42.53;21.80;;;-0.10;99.90;;;;;;5107423;28;20482;-66
2020/12/05 00:37:28;;;;;;;51.10;24.77;;;-0.10;99.90;;;;;;5104538;28;20495;-65
2020/12/05 00:39:56;;;;;;;44.50;24.00;;;0.10;99.90;;;;;;5105501;28;20532;-68
2020/12/05 00:42:24;;;;;;;56.90;26.50;;;-0.10;99.90;;;;;;5110472;28;20443;-66
2020/12/05 00:44:51;;;;;;;57.53;25.57;;;-0.10;99.90;;;;;;5112200;28;20472;-65
2020/12/05 00:47:19;;;;;;;53.87;24.23;;;-0.20;99.90;;;;;;5111469;28;21012;-68
2020/12/05 00:49:46;;;;;;;43.77;22.70;;;-0.10;99.90;;;;;;5111303;28;20939;-66
2020/12/05 00:52:13;;;;;;;45.93;24.40;;;-0.10;99.90;;;;;;5111227;28;20812;-68
2020/12/05 00:54:42;;;;;;;52.97;24.43;;;-0.10;99.90;;;;;;5111274;28;20491;-68
2020/12/05 00:57:09;;;;;;;50.67;24.07;;;-0.10;99.90;;;;;;5111645;28;20708;-66
2020/12/05 00:59:36;;;;;;;42.57;20.43;;;-0.10;99.90;;;;;;5110494;28;20780;-68
2020/12/05 01:02:03;;;;;;;49.27;23.80;;;-0.10;99.90;;;;;;5111344;28;20464;-66
2020/12/05 01:04:30;;;;;;;63.30;26.13;;;-0.20;99.90;;;;;;5110806;28;20593;-66
2020/12/05 01:06:57;;;;;;;51.03;27.20;;;-0.10;99.90;;;;;;5111163;28;20948;-66
2020/12/05 01:09:25;;;;;;;63.13;26.80;;;-0.10;99.90;;;;;;5110325;28;20974;-66
2020/12/05 01:11:53;;;;;;;52.50;25.13;;;-0.10;99.90;;;;;;5110937;28;20482;-66
2020/12/05 01:14:20;;;;;;;55.23;25.43;;;-0.10;99.90;;;;;;5110647;28;20476;-68
2020/12/05 01:16:47;;;;;;;53.70;24.73;;;-0.10;99.90;;;;;;5110686;28;20472;-65
2020/12/05 01:19:14;;;;;;;49.80;24.30;;;0.00;99.90;;;;;;5110083;28;20444;-65
2020/12/05 01:21:45;;;;;;;50.80;24.23;;;0.00;99.90;;;;;;5111152;28;20456;-67
2020/12/05 01:24:12;;;;;;;66.43;29.13;;;0.00;99.90;;;;;;5110868;28;20483;-66
2020/12/05 01:26:39;;;;;;;69.90;28.03;;;0.00;99.90;;;;;;5110994;28;20501;-68
2020/12/05 01:29:07;;;;;;;58.60;27.20;;;0.00;99.90;;;;;;5111533;28;20456;-66
2020/12/05 01:31:35;;;;;;;68.63;28.43;;;0.00;99.90;;;;;;5110594;28;20456;-68
2020/12/05 01:34:04;;;;;;;58.13;27.23;;;0.00;99.90;;;;;;5110882;28;20511;-66
2020/12/05 01:36:31;;;;;;;58.37;27.37;;;0.00;99.90;;;;;;5110640;28;20492;-66
2020/12/05 01:38:58;;;;;;;56.73;28.17;;;0.00;99.90;;;;;;5111309;28;20448;-66
2020/12/05 01:41:25;;;;;;;68.07;30.97;;;0.00;99.90;;;;;;5110455;28;20939;-66
2020/12/05 01:43:52;;;;;;;71.37;29.80;;;0.10;99.90;;;;;;5110406;28;20483;-66
2020/12/05 01:46:32;;;;;;;56.07;28.37;;;0.10;99.90;;;;;;5110962;28;20452;-66
2020/12/05 01:49:00;;;;;;;67.53;31.53;;;0.10;99.90;;;;;;5110217;28;20462;-66
2020/12/05 01:51:27;;;;;;;62.00;30.77;;;0.10;99.90;;;;;;5108832;28;20464;-66
2020/12/05 01:53:56;;;;;;;67.83;33.30;;;0.10;99.90;;;;;;5111151;28;20538;-65
2020/12/05 01:56:25;;;;;;;79.07;35.23;;;0.10;99.90;;;;;;5111545;28;20487;-65
2020/12/05 01:58:52;;;;;;;65.10;32.03;;;0.10;99.90;;;;;;5111381;28;20924;-68
2020/12/05 02:01:25;;;;;;;70.67;31.77;;;0.10;99.90;;;;;;5110816;28;20459;-65
2020/12/05 02:03:54;;;;;;;70.33;31.90;;;0.10;99.90;;;;;;5101209;28;20488;-68
2020/12/05 02:06:29;;;;;;;68.63;29.90;;;0.10;99.90;;;;;;5090924;28;20476;-68
2020/12/05 02:09:04;;;;;;;63.00;30.03;;;0.20;99.90;;;;;;5090370;28;20464;-68
2020/12/05 02:11:38;;;;;;;78.20;34.07;;;0.10;99.90;;;;;;5089667;28;20876;-68
2020/12/05 02:14:10;;;;;;;58.90;30.23;;;0.10;99.90;;;;;;5103231;28;20826;-67
2020/12/05 02:16:39;;;;;;;68.97;31.80;;;0.20;99.90;;;;;;5110345;28;20483;-67
2020/12/05 02:19:15;;;;;;;67.97;29.70;;;0.10;99.90;;;;;;5109915;28;20448;-67
2020/12/05 02:21:43;;;;;;;67.20;30.70;;;0.10;99.90;;;;;;5110140;28;20458;-66
2020/12/05 02:24:12;;;;;;;76.27;32.07;;;0.10;99.90;;;;;;5110521;28;20483;-67
2020/12/05 02:26:39;;;;;;;70.13;31.50;;;0.10;99.90;;;;;;5111039;28;20456;-66
2020/12/05 02:29:07;;;;;;;70.60;33.17;;;0.10;99.90;;;;;;5110857;28;20873;-67
2020/12/05 02:31:36;;;;;;;66.63;31.33;;;0.10;99.90;;;;;;5110319;28;20456;-67
2020/12/05 02:34:04;;;;;;;65.90;30.07;;;0.10;99.90;;;;;;5111035;28;21051;-66
2020/12/05 02:36:37;;;;;;;74.20;32.73;;;0.10;99.90;;;;;;5110481;28;20507;-67
2020/12/05 02:39:09;;;;;;;66.53;31.23;;;0.10;99.90;;;;;;5109703;28;20511;-67
2020/12/05 02:41:38;;;;;;;61.83;27.50;;;0.10;99.90;;;;;;5109726;28;20463;-66
2020/12/05 02:44:06;;;;;;;64.13;29.63;;;0.10;99.90;;;;;;5109332;28;20475;-66
2020/12/05 02:46:34;;;;;;;62.47;28.37;;;0.10;99.90;;;;;;5109303;28;20506;-67
2020/12/05 02:49:01;;;;;;;59.73;28.63;;;0.10;99.90;;;;;;5109727;28;20459;-66
2020/12/05 02:51:29;;;;;;;76.80;29.73;;;0.00;99.90;;;;;;5108613;28;20452;-66
2020/12/05 02:53:56;;;;;;;62.93;30.53;;;0.00;99.90;;;;;;5109211;28;20488;-67
2020/12/05 02:56:24;;;;;;;62.47;30.03;;;0.00;99.90;;;;;;5109244;28;20487;-66
2020/12/05 02:58:52;;;;;;;59.40;26.40;;;0.00;99.90;;;;;;5109425;28;20452;-67
2020/12/05 03:01:19;;;;;;;47.17;23.23;;;-0.20;99.90;;;;;;5108596;28;20823;-66
2020/12/05 03:03:47;;;;;;;57.80;23.43;;;0.00;99.90;;;;;;5108776;28;21018;-67
2020/12/05 03:06:14;;;;;;;60.60;26.50;;;0.00;99.90;;;;;;5108944;28;20955;-67
2020/12/05 03:08:41;;;;;;;53.13;25.03;;;0.00;99.90;;;;;;5109414;28;20528;-67
2020/12/05 03:11:08;;;;;;;52.40;25.53;;;0.00;99.90;;;;;;5109047;28;20547;-67
2020/12/05 03:13:35;;;;;;;67.87;29.60;;;0.00;99.90;;;;;;5099034;28;20469;-67
2020/12/05 03:16:07;;;;;;;73.97;32.53;;;0.00;99.90;;;;;;5088585;28;20854;-67
2020/12/05 03:18:35;;;;;;;71.70;31.03;;;0.10;99.90;;;;;;5088485;28;20441;-67
2020/12/05 03:21:02;;;;;;;68.80;30.20;;;0.10;99.90;;;;;;5088513;28;20452;-67
2020/12/05 03:23:29;;;;;;;62.83;26.60;;;0.10;99.90;;;;;;5088696;28;20675;-67
2020/12/05 03:25:57;;;;;;;49.77;25.53;;;0.30;99.90;;;;;;5088944;28;20506;-67
2020/12/05 03:28:25;;;;;;;60.97;29.30;;;0.10;99.90;;;;;;5088876;28;20979;-67
2020/12/05 03:30:53;;;;;;;68.93;30.30;;;0.10;99.90;;;;;;5088532;28;20457;-67
2020/12/05 03:33:22;;;;;;;70.57;30.23;;;0.10;99.90;;;;;;5089312;28;20456;-67
2020/12/05 03:35:49;;;;;;;73.60;31.83;;;0.10;99.90;;;;;;5089432;28;20467;-67
2020/12/05 03:38:17;;;;;;;74.07;32.40;;;0.20;99.90;;;;;;5087980;28;20538;-66
2020/12/05 03:40:44;;;;;;;77.73;30.47;;;0.20;99.90;;;;;;5087648;28;20461;-66
2020/12/05 03:43:11;;;;;;;64.97;30.80;;;0.20;99.90;;;;;;5101892;28;20459;-67
2020/12/05 03:45:39;;;;;;;74.60;31.33;;;0.10;99.90;;;;;;5109171;28;20991;-67
2020/12/05 03:48:06;;;;;;;80.83;34.00;;;0.20;99.90;;;;;;5109727;28;20452;-66
2020/12/05 03:50:34;;;;;;;75.97;31.20;;;0.20;99.90;;;;;;5109327;28;20452;-66
2020/12/05 03:53:01;;;;;;;78.03;33.23;;;0.20;99.90;;;;;;5109009;28;20456;-69
2020/12/05 03:55:28;;;;;;;85.63;33.10;;;0.10;99.90;;;;;;5108417;28;20484;-66
2020/12/05 03:57:55;;;;;;;75.00;32.17;;;0.20;99.90;;;;;;5108545;28;20476;-66
2020/12/05 04:00:24;;;;;;;78.13;32.80;;;0.20;99.90;;;;;;5108040;28;20456;-66
2020/12/05 04:02:51;;;;;;;62.63;31.20;;;0.20;99.90;;;;;;5129295;27;20946;-69
2020/12/05 04:05:18;;;;;;;68.83;32.63;;;0.20;99.90;;;;;;5129318;28;20471;-68
2020/12/05 04:07:46;;;;;;;67.13;31.53;;;0.20;99.90;;;;;;5129437;28;20451;-68
2020/12/05 04:10:14;;;;;;;81.40;32.77;;;0.30;99.90;;;;;;5128965;28;20466;-66
2020/12/05 04:12:41;;;;;;;79.70;31.27;;;0.20;99.90;;;;;;5124724;28;20507;-68
2020/12/05 04:15:08;;;;;;;77.67;32.87;;;0.30;99.90;;;;;;5090187;28;20479;-68
2020/12/05 04:17:35;;;;;;;66.93;28.63;;;0.30;99.90;;;;;;5091834;28;20477;-68
2020/12/05 04:20:03;;;;;;;80.27;30.27;;;0.20;99.90;;;;;;5091929;28;20842;-68
2020/12/05 04:22:30;;;;;;;78.43;35.77;;;0.30;99.90;;;;;;5091724;28;20452;-68
2020/12/05 04:24:58;;;;;;;79.47;31.60;;;0.30;99.90;;;;;;5092217;28;21010;-68
2020/12/05 04:27:25;;;;;;;69.27;30.07;;;0.20;99.90;;;;;;5091163;28;20461;-68
2020/12/05 04:29:52;;;;;;;72.50;32.07;;;0.20;99.90;;;;;;5091577;28;20464;-68
2020/12/05 04:32:19;;;;;;;75.40;30.77;;;0.20;99.90;;;;;;5091776;28;20913;-68
2020/12/05 04:34:47;;;;;;;87.70;30.83;;;0.20;99.90;;;;;;5091970;28;20481;-68
2020/12/05 04:37:15;;;;;;;76.80;31.70;;;0.30;99.90;;;;;;5091980;28;20481;-68
2020/12/05 04:39:42;;;;;;;79.73;32.03;;;0.20;99.90;;;;;;5091181;28;20460;-68
2020/12/05 04:42:10;;;;;;;73.90;32.73;;;0.20;99.90;;;;;;5095192;28;20804;-68
2020/12/05 04:44:37;;;;;;;72.43;29.13;;;0.20;99.90;;;;;;5112000;28;20786;-68
2020/12/05 04:47:06;;;;;;;73.77;29.80;;;0.20;99.90;;;;;;5111875;28;20452;-68
2020/12/05 04:49:36;;;;;;;75.27;29.80;;;0.20;99.90;;;;;;5111645;28;20915;-68
2020/12/05 04:52:18;;;;;;;70.50;34.90;;;0.20;99.90;;;;;;5111336;28;20985;-68
2020/12/05 04:54:51;;;;;;;73.97;32.33;;;0.20;99.90;;;;;;5111570;28;20484;-68
2020/12/05 04:57:22;;;;;;;71.77;30.63;;;0.30;99.90;;;;;;5111758;28;20533;-68
2020/12/05 04:59:50;;;;;;;60.03;29.47;;;0.50;99.90;;;;;;5111586;28;20448;-68
2020/12/05 05:02:20;;;;;;;81.27;31.90;;;0.30;99.90;;;;;;5111298;28;20490;-68
2020/12/05 05:04:48;;;;;;;78.03;30.30;;;0.30;99.90;;;;;;5111129;27;20468;-68
2020/12/05 05:07:16;;;;;;;81.50;34.13;;;0.30;99.90;;;;;;5111709;28;20698;-69
2020/12/05 05:09:48;;;;;;;75.80;31.57;;;0.30;99.90;;;;;;5111057;28;20452;-68
2020/12/05 05:12:27;;;;;;;82.73;33.53;;;0.30;99.90;;;;;;5111355;28;20456;-68
2020/12/05 05:14:54;;;;;;;68.23;30.23;;;0.20;99.90;;;;;;5111596;28;21025;-68
2020/12/05 05:17:21;;;;;;;86.57;32.90;;;0.20;99.90;;;;;;5110886;28;20483;-68
2020/12/05 05:19:48;;;;;;;69.60;31.47;;;0.30;99.90;;;;;;5111531;28;20488;-68
2020/12/05 05:22:21;;;;;;;74.47;31.97;;;0.30;99.90;;;;;;5113117;27;20463;-68
2020/12/05 05:25:01;;;;;;;67.63;31.77;;;0.30;99.90;;;;;;5131727;27;20479;-68
2020/12/05 05:27:30;;;;;;;62.70;30.80;;;0.30;99.90;;;;;;5131121;27;20939;-67
2020/12/05 05:30:07;;;;;;;72.20;31.87;;;0.30;99.90;;;;;;5132185;27;20624;-67
2020/12/05 05:32:43;;;;;;;69.20;30.93;;;0.30;99.90;;;;;;5132030;27;20455;-67
2020/12/05 05:35:12;;;;;;;59.70;28.70;;;0.30;99.90;;;;;;5132534;27;20475;-68
2020/12/05 05:37:41;;;;;;;61.43;28.87;;;0.30;99.90;;;;;;5131981;27;20844;-68
2020/12/05 05:40:10;;;;;;;68.07;28.30;;;0.30;99.90;;;;;;5131658;27;20470;-67
2020/12/05 05:42:39;;;;;;;68.83;30.47;;;0.30;99.90;;;;;;5123834;27;20456;-68
2020/12/05 05:45:16;;;;;;;68.10;27.87;;;0.20;99.90;;;;;;5111589;28;20472;-67
2020/12/05 05:47:45;;;;;;;64.23;28.03;;;0.30;99.90;;;;;;5111294;28;20463;-68
2020/12/05 05:50:23;;;;;;;73.20;29.00;;;0.30;99.90;;;;;;5111232;28;20448;-67
2020/12/05 05:52:55;;;;;;;72.80;28.87;;;0.30;99.90;;;;;;5115997;27;20475;-68
2020/12/05 05:55:37;;;;;;;77.93;31.13;;;0.30;99.90;;;;;;5116520;27;21199;-68
2020/12/05 05:58:06;;;;;;;65.17;29.63;;;0.30;99.90;;;;;;5130838;27;20482;-68
2020/12/05 06:00:37;;;;;;;59.90;29.10;;;0.40;99.90;;;;;;5116637;27;20547;-68
2020/12/05 06:03:16;;;;;;;63.27;27.93;;;0.30;99.90;;;;;;5109729;28;20467;-68
2020/12/05 06:05:46;;;;;;;68.33;29.87;;;0.30;99.90;;;;;;5110960;28;20456;-67
2020/12/05 06:08:21;;;;;;;76.43;32.50;;;0.40;99.90;;;;;;5110474;28;20448;-68
2020/12/05 06:10:56;;;;;;;81.67;32.13;;;0.40;99.90;;;;;;5109920;28;20888;-67
2020/12/05 06:13:26;;;;;;;79.57;30.90;;;0.40;99.90;;;;;;5102305;28;20461;-67
2020/12/05 06:15:55;;;;;;;83.20;33.43;;;0.30;99.90;;;;;;5089899;28;20465;-67
2020/12/05 06:18:23;;;;;;;78.37;35.20;;;0.40;99.90;;;;;;5089561;28;20492;-68
2020/12/05 06:20:50;;;;;;;82.93;34.00;;;0.50;99.90;;;;;;5089319;28;20457;-68
2020/12/05 06:23:37;;;;;;;72.17;31.60;;;0.30;99.90;;;;;;5089801;28;20449;-67
2020/12/05 06:26:08;;;;;;;76.97;29.47;;;0.40;99.90;;;;;;5089546;28;20464;-67
2020/12/05 06:28:39;;;;;;;71.60;29.80;;;0.40;99.90;;;;;;5089976;28;20457;-68
2020/12/05 06:31:06;;;;;;;83.03;30.37;;;0.40;99.90;;;;;;5089525;28;20502;-68
2020/12/05 06:33:38;;;;;;;87.13;32.53;;;0.40;99.90;;;;;;5089327;28;20441;-67
2020/12/05 06:36:47;;;;;;;77.00;30.63;;;0.40;99.90;;;;;;5089033;28;20449;-67
2020/12/05 06:39:17;;;;;;;83.23;32.37;;;0.50;99.90;;;;;;5073589;28;20457;-68
2020/12/05 06:41:47;;;;;;;85.63;32.53;;;0.40;99.90;;;;;;5089624;28;20461;-67
2020/12/05 06:44:17;;;;;;;75.23;30.77;;;0.50;99.90;;;;;;5110035;28;20513;-68
2020/12/05 06:46:52;;;;;;;81.47;34.60;;;0.40;99.90;;;;;;5110332;28;20456;-68
2020/12/05 06:49:45;;;;;;;82.23;34.27;;;0.40;99.90;;;;;;5110429;28;20650;-67
2020/12/05 06:52:32;;;;;;;85.27;30.53;;;0.40;99.90;;;;;;5109308;28;20452;-67
2020/12/05 06:55:02;;;;;;;82.70;31.97;;;0.50;99.90;;;;;;5109623;28;20943;-67
2020/12/05 06:57:30;;;;;;;83.73;32.10;;;0.40;99.90;;;;;;5109311;28;20491;-66
2020/12/05 07:00:16;;;;;;;81.33;34.43;;;0.40;99.90;;;;;;5109336;28;20454;-68
2020/12/05 07:03:04;;;;;;;86.70;33.00;;;0.40;99.90;;;;;;5108973;28;20452;-67
2020/12/05 07:05:39;;;;;;;98.93;34.90;;;0.40;99.90;;;;;;5109380;28;20476;-68
2020/12/05 07:08:26;;;;;;;92.00;31.57;;;0.50;99.90;;;;;;5109331;28;20444;-68
2020/12/05 07:10:57;;;;;;;92.50;33.20;;;0.50;99.90;;;;;;5129231;27;20478;-68
2020/12/05 07:13:26;;;;;;;104.77;34.33;;;0.50;99.90;;;;;;5121296;27;20467;-68
2020/12/05 07:16:10;;;;;;;91.93;33.10;;;0.50;99.90;;;;;;5108913;28;20452;-68
2020/12/05 07:18:39;;;;;;;95.90;32.73;;;0.50;99.90;;;;;;5108896;28;20483;-67
2020/12/05 07:21:06;;;;;;;93.03;33.07;;;0.60;99.90;;;;;;5104814;28;20453;-68
2020/12/05 07:23:34;;;;;;;78.87;31.30;;;0.60;99.90;;;;;;5107823;28;20464;-68
2020/12/05 07:26:02;;;;;;;96.80;32.93;;;0.70;99.90;;;;;;5108232;28;20455;-68
2020/12/05 07:28:29;;;;;;;92.37;33.47;;;0.70;99.90;;;;;;5108055;28;20460;-68
2020/12/05 07:30:57;;;;;;;72.93;32.20;;;0.70;99.90;;;;;;5108016;28;20467;-69
2020/12/05 07:33:25;;;;;;;92.83;31.07;;;0.80;99.90;;;;;;5108927;28;20456;-69
2020/12/05 07:35:57;;;;;;;100.87;31.60;;;0.80;99.90;;;;;;5110164;28;20456;-69
2020/12/05 07:38:28;;;;;;;82.63;32.40;;;0.80;99.90;;;;;;5107168;28;20484;-69
2020/12/05 07:40:56;;;;;;;81.57;29.70;;;0.80;99.90;;;;;;5105597;28;20534;-69
2020/12/05 07:43:23;;;;;;;77.53;32.83;;;0.80;99.90;;;;;;5105494;28;20448;-69
2020/12/05 07:45:52;;;;;;;76.13;29.47;;;0.90;99.90;;;;;;5108511;28;20877;-69
2020/12/05 07:48:21;;;;;;;75.27;31.80;;;0.90;99.90;;;;;;5108274;28;20451;-69
2020/12/05 07:50:49;;;;;;;71.23;29.07;;;1.00;99.90;;;;;;5113202;28;20470;-69
2020/12/05 07:53:24;;;;;;;84.17;31.40;;;1.00;99.90;;;;;;5112007;28;20839;-69
2020/12/05 07:55:52;;;;;;;68.57;27.97;;;1.00;99.90;;;;;;5112585;28;20455;-69
2020/12/05 07:58:19;;;;;;;78.20;32.00;;;1.10;99.90;;;;;;5111866;28;20565;-69
2020/12/05 08:00:47;;;;;;;70.53;29.27;;;1.10;99.90;;;;;;5112211;28;20969;-69
2020/12/05 08:03:46;;;;;;;63.77;28.97;;;1.00;99.90;;;;;;5113461;28;20460;-69
2020/12/05 08:06:37;;;;;;;69.47;29.37;;;1.10;99.90;;;;;;5113407;28;20501;-69
2020/12/05 08:09:05;;;;;;;61.03;25.70;;;1.10;99.90;;;;;;5113797;28;20452;-69
2020/12/05 08:11:45;;;;;;;59.50;27.33;;;1.10;99.90;;;;;;5113367;28;20484;-69
2020/12/05 08:14:12;;;;;;;71.50;29.00;;;1.10;99.90;;;;;;5112721;28;20476;-70
2020/12/05 08:16:41;;;;;;;66.63;28.30;;;1.00;99.90;;;;;;5112110;28;20455;-69
2020/12/05 08:19:09;;;;;;;54.77;25.27;;;1.20;99.90;;;;;;5113049;28;20479;-70
2020/12/05 08:21:37;;;;;;;63.63;27.70;;;1.20;99.90;;;;;;5112717;28;20532;-69
2020/12/05 08:24:12;;;;;;;65.30;28.03;;;1.10;99.90;;;;;;5113582;28;20483;-69
2020/12/05 08:26:40;;;;;;;61.23;25.70;;;1.10;99.90;;;;;;5107776;28;20468;-69
2020/12/05 08:29:08;;;;;;;75.77;32.17;;;1.20;99.90;;;;;;5107455;27;20844;-69
2020/12/05 08:31:40;;;;;;;68.80;28.57;;;1.30;99.90;;;;;;5109586;28;20817;-69
2020/12/05 08:34:08;;;;;;;71.43;29.03;;;1.30;99.90;;;;;;5112001;28;20862;-69
2020/12/05 08:36:41;;;;;;;64.97;27.40;;;1.30;99.90;;;;;;5095467;28;20997;-69
2020/12/05 08:39:10;;;;;;;63.60;25.93;;;1.20;99.90;;;;;;5092106;28;20488;-69
2020/12/05 08:41:46;;;;;;;68.80;28.80;;;1.30;99.90;;;;;;5092767;28;20480;-69
2020/12/05 08:44:15;;;;;;;63.27;28.07;;;1.40;99.90;;;;;;5092479;28;20475;-69
2020/12/05 08:46:43;;;;;;;62.63;28.30;;;1.40;99.90;;;;;;5092682;28;20464;-69
2020/12/05 08:49:18;;;;;;;70.23;28.67;;;1.40;99.90;;;;;;5092413;28;20452;-69
2020/12/05 08:51:48;;;;;;;62.70;28.13;;;1.40;99.90;;;;;;5092100;28;20467;-70
2020/12/05 08:54:15;;;;;;;58.60;26.10;;;1.40;99.90;;;;;;5092186;28;20488;-69
2020/12/05 08:56:43;;;;;;;67.80;27.87;;;1.50;99.90;;;;;;5092578;28;20484;-70
2020/12/05 08:59:11;;;;;;;56.97;26.73;;;1.60;99.90;;;;;;5094471;28;20511;-70
2020/12/05 09:01:40;;;;;;;66.60;27.63;;;1.60;99.90;;;;;;5099215;28;20821;-69
2020/12/05 09:04:07;;;;;;;65.80;28.13;;;1.40;99.90;;;;;;5103924;28;20503;-70
2020/12/05 09:06:35;;;;;;;53.43;25.90;;;1.60;99.90;;;;;;5111112;28;20463;-70
2020/12/05 09:09:03;;;;;;;61.47;27.67;;;1.70;99.90;;;;;;5109573;28;20483;-70
2020/12/05 09:11:30;;;;;;;55.17;25.40;;;1.60;99.90;;;;;;5108655;28;20451;-70
2020/12/05 09:13:57;;;;;;;55.50;26.97;;;1.70;99.90;;;;;;5109105;28;20476;-70
2020/12/05 09:16:33;;;;;;;62.00;25.90;;;1.70;99.90;;;;;;5112008;28;20448;-69
2020/12/05 09:19:00;;;;;;;60.77;24.77;;;1.60;99.90;;;;;;5105683;28;20473;-70
2020/12/05 09:21:35;;;;;;;48.80;23.03;;;1.70;99.90;;;;;;5106477;28;20469;-69
2020/12/05 09:24:05;;;;;;;49.80;22.70;;;1.70;99.90;;;;;;5105287;28;20484;-69
2020/12/05 09:26:33;;;;;;;48.17;21.67;;;1.70;99.90;;;;;;5111285;28;20448;-69
2020/12/05 09:29:00;;;;;;;47.70;24.13;;;1.70;99.90;;;;;;5093351;28;20459;-69
2020/12/05 09:31:27;;;;;;;58.03;30.27;;;1.80;99.90;;;;;;5098749;28;21374;-70
2020/12/05 09:33:55;;;;;;;41.33;25.60;;;1.70;99.90;;;;;;5094592;28;21000;-70
2020/12/05 09:36:22;;;;;;;37.47;22.17;;;1.80;99.90;;;;;;5097724;28;20464;-70
2020/12/05 09:38:50;;;;;;;41.50;24.73;;;1.70;99.90;;;;;;5108286;28;20479;-70
2020/12/05 09:41:18;;;;;;;45.93;23.67;;;1.60;99.90;;;;;;5108201;28;20534;-71
2020/12/05 09:43:45;;;;;;;38.60;20.40;;;1.80;99.90;;;;;;5103740;28;20495;-71
2020/12/05 09:46:13;;;;;;;37.10;22.03;;;1.80;99.90;;;;;;5110760;28;20956;-70
2020/12/05 09:48:40;;;;;;;40.87;22.67;;;1.80;99.90;;;;;;5110424;28;20529;-71
2020/12/05 09:51:07;;;;;;;43.10;22.23;;;2.00;99.90;;;;;;5110739;28;20452;-71
2020/12/05 09:53:34;;;;;;;45.43;23.30;;;1.90;99.90;;;;;;5110411;28;20464;-71
2020/12/05 09:56:02;;;;;;;39.80;21.23;;;1.90;99.90;;;;;;5110769;28;20459;-71
2020/12/05 09:58:30;;;;;;;42.30;22.37;;;1.90;99.90;;;;;;5106798;28;20491;-72
2020/12/05 10:00:57;;;;;;;46.97;24.77;;;1.90;99.90;;;;;;5109694;28;20509;-71
2020/12/05 10:03:24;;;;;;;50.60;24.30;;;1.90;99.90;;;;;;5108807;28;21147;-71
2020/12/05 10:05:52;;;;;;;47.30;24.90;;;1.80;99.90;;;;;;5109910;28;20460;-71
2020/12/05 10:08:19;;;;;;;56.00;26.10;;;2.00;99.90;;;;;;5110779;28;20452;-71
2020/12/05 10:10:46;;;;;;;52.00;27.20;;;1.80;99.90;;;;;;5105653;27;20464;-71
2020/12/05 10:13:13;;;;;;;53.67;26.30;;;1.90;99.90;;;;;;5107968;28;20484;-71
2020/12/05 10:15:41;;;;;;;48.10;25.37;;;1.90;99.90;;;;;;5109119;28;20486;-71
2020/12/05 10:18:08;;;;;;;51.97;27.50;;;1.90;99.90;;;;;;5107531;28;20476;-71
2020/12/05 10:20:38;;;;;;;61.90;31.47;;;2.00;99.90;;;;;;5105749;28;20480;-70
2020/12/05 10:23:05;;;;;;;54.47;29.40;;;2.00;99.90;;;;;;5105862;28;20456;-71
2020/12/05 10:25:33;;;;;;;46.73;27.70;;;2.00;99.90;;;;;;5109097;28;20479;-71
2020/12/05 10:28:00;;;;;;;51.30;25.03;;;2.10;99.90;;;;;;5110175;28;20449;-71
2020/12/05 10:30:27;;;;;;;48.47;25.23;;;2.10;99.90;;;;;;5109899;28;20459;-71
2020/12/05 10:32:55;;;;;;;48.37;23.17;;;2.10;99.90;;;;;;5107523;28;20467;-72
2020/12/05 10:35:22;;;;;;;48.07;24.00;;;2.10;99.90;;;;;;5100305;28;20857;-71
2020/12/05 10:37:50;;;;;;;45.03;24.07;;;2.20;99.90;;;;;;5089286;28;20461;-71
2020/12/05 10:40:17;;;;;;;50.13;24.80;;;2.10;99.90;;;;;;5089267;28;20967;-72
2020/12/05 10:42:44;;;;;;;46.83;22.93;;;2.20;99.90;;;;;;5097530;28;20455;-71
2020/12/05 10:45:11;;;;;;;41.40;22.80;;;2.10;99.90;;;;;;5107352;28;20987;-71
2020/12/05 10:47:38;;;;;;;58.30;25.17;;;2.20;99.90;;;;;;5109684;28;20452;-71
2020/12/05 10:50:06;;;;;;;42.00;21.93;;;2.20;99.90;;;;;;5109054;28;20467;-71
2020/12/05 10:52:34;;;;;;;43.67;23.43;;;2.30;99.90;;;;;;5106823;28;20460;-71
2020/12/05 10:55:01;;;;;;;46.53;24.60;;;2.20;99.90;;;;;;5108571;28;20899;-71
2020/12/05 10:57:28;;;;;;;45.87;24.90;;;2.20;99.90;;;;;;5094750;28;20465;-71
2020/12/05 10:59:56;;;;;;;46.03;23.83;;;2.20;99.90;;;;;;5099168;28;21018;-71
2020/12/05 11:02:24;;;;;;;50.67;25.30;;;2.10;99.90;;;;;;5106880;28;20455;-71
2020/12/05 11:04:51;;;;;;;43.67;25.13;;;2.20;99.90;;;;;;5108828;28;20476;-71
2020/12/05 11:07:19;;;;;;;47.17;24.03;;;2.20;99.90;;;;;;5109550;28;20464;-71
2020/12/05 11:09:46;;;;;;;45.33;23.30;;;2.20;99.90;;;;;;5109489;28;20479;-71
2020/12/05 11:12:13;;;;;;;50.60;27.67;;;2.10;99.90;;;;;;5104431;28;20455;-71
2020/12/05 11:14:40;;;;;;;54.40;26.40;;;2.10;99.90;;;;;;5104486;28;20483;-71
2020/12/05 11:17:08;;;;;;;49.30;26.13;;;2.10;99.90;;;;;;5108036;28;20833;-71
2020/12/05 11:19:35;;;;;;;54.90;25.90;;;2.10;99.90;;;;;;5107844;28;20532;-71
2020/12/05 11:22:02;;;;;;;52.33;25.17;;;2.00;99.90;;;;;;5108690;28;20482;-71
2020/12/05 11:24:30;;;;;;;40.13;24.30;;;2.10;99.90;;;;;;5108301;28;20987;-72
2020/12/05 11:26:57;;;;;;;45.27;24.77;;;2.10;99.90;;;;;;5108868;28;20966;-72
2020/12/05 11:29:24;;;;;;;51.27;24.70;;;2.20;99.90;;;;;;5109058;28;20456;-72
2020/12/05 11:31:52;;;;;;;45.17;23.53;;;2.30;99.90;;;;;;5105687;28;20459;-72
2020/12/05 11:34:19;;;;;;;47.40;23.27;;;2.20;99.90;;;;;;5108195;28;20475;-71
2020/12/05 11:36:48;;;;;;;49.13;23.37;;;2.20;99.90;;;;;;5107816;28;21018;-72
2020/12/05 11:39:15;;;;;;;47.30;24.33;;;2.30;99.90;;;;;;5108151;28;20492;-72
2020/12/05 11:41:43;;;;;;;45.50;24.63;;;2.20;99.90;;;;;;5106942;28;20448;-71
2020/12/05 11:44:10;;;;;;;47.23;24.77;;;2.20;99.90;;;;;;5092179;28;20484;-71
2020/12/05 11:46:38;;;;;;;48.07;25.17;;;2.30;99.90;;;;;;5107659;28;20973;-72
2020/12/05 11:49:05;;;;;;;51.27;24.83;;;2.30;99.90;;;;;;5104148;28;20459;-71
2020/12/05 11:51:32;;;;;;;56.43;27.43;;;2.20;99.90;;;;;;5104344;28;20455;-71
2020/12/05 11:53:59;;;;;;;47.27;26.23;;;2.30;99.90;;;;;;5107640;28;20478;-71
2020/12/05 11:56:26;;;;;;;46.00;23.67;;;2.40;99.90;;;;;;5108310;28;20455;-72
2020/12/05 12:23:56;;;;;;;16.63;11.23;;;16.70;99.90;25.30;96032.00;;;;5082418;27;20476;-36
2020/12/05 12:26:29;;;;;;;11.80;9.57;;;18.80;99.90;24.80;96024.00;;;;5066711;28;52236;-42
2020/12/05 12:28:56;;;;;;;12.67;9.60;;;19.90;97.80;24.50;96027.00;;;;5061613;28;20239;-41
2020/12/05 12:34:15;;;;;;;14.03;7.77;;;21.80;99.90;24.30;96012.00;;;;5129557;27;20904;-32
2020/12/05 12:36:42;;;;;;;8.77;6.20;;;23.10;92.90;24.50;96014.00;;;;5087876;28;20223;-33
2020/12/05 12:39:10;;;;;;;7.70;5.13;;;;;24.60;96021.00;;;;5104604;28;20199;-34
2020/12/05 12:41:37;;;;;;;6.27;4.83;;;24.00;78.20;24.70;96010.00;;;;5108203;28;20303;-33
2020/12/05 12:44:05;;;;;;;5.40;4.20;;;24.30;76.90;24.70;96012.00;;;;5108164;28;20210;-34
2020/12/05 12:46:33;;;;;;;5.70;4.57;;;24.50;91.70;24.80;96010.00;;;;5108052;28;20207;-35
2020/12/05 12:54:27;;;;;;;31.87;23.23;;;23.20;49.60;12.80;95916.00;;;;5135100;27;20553;-67
2020/12/05 12:56:54;;;;;;;44.60;29.57;;;20.90;51.20;8.60;95903.00;;;;5080077;28;20651;-67
2020/12/05 12:59:22;;;;;;;44.93;30.13;;;17.20;52.10;6.70;95890.00;;;;5103582;28;20217;-67
2020/12/05 13:01:54;;;;;;;29.90;19.77;;;14.10;56.80;6.40;95885.00;;;;5097269;28;20210;-67
2020/12/05 13:04:22;;;;;;;29.93;18.53;;;11.90;62.80;6.00;95882.00;;;;5101192;28;20226;-67
2020/12/05 13:06:53;;;;;;;28.27;17.90;;;10.20;68.80;5.30;95881.00;;;;5106529;28;20205;-69
2020/12/05 13:09:21;;;;;;;23.27;16.10;;;9.00;74.70;4.80;95876.00;;;;5107234;28;20203;-69
2020/12/05 13:11:50;;;;;;;23.73;15.87;;;8.00;80.90;4.50;95866.00;;;;5106008;28;20584;-68